createdAt,value
2023-02-14T00:03:53.082Z,3.69
2023-02-14T00:09:00.233Z,3.71
2023-02-14T00:14:22.507Z,3.70
2023-02-14T00:19:32.027Z,3.81
2023-02-14T00:24:46.183Z,3.73
2023-02-14T00:29:49.808Z,3.70
2023-02-14T00:35:13.934Z,3.69
2023-02-14T00:40:17.778Z,3.71
2023-02-14T00:45:21.568Z,3.73
2023-02-14T00:50:25.084Z,3.79
2023-02-14T00:55:28.540Z,3.73
2023-02-14T01:00:32.420Z,3.84
2023-02-14T01:05:35.825Z,3.67
2023-02-14T01:10:40.551Z,3.55
2023-02-14T01:15:47.301Z,3.78
2023-02-14T01:20:50.684Z,3.76
2023-02-14T01:25:54.501Z,3.72
2023-02-14T01:30:58.785Z,3.79
2023-02-14T01:36:05.481Z,3.71
2023-02-14T01:41:11.554Z,3.75
2023-02-14T01:46:21.143Z,3.63
2023-02-14T01:51:26.557Z,3.51
2023-02-14T01:56:36.217Z,3.49
2023-02-14T02:01:40.755Z,3.51
2023-02-14T02:06:47.956Z,3.44
2023-02-14T02:11:51.498Z,3.34
2023-02-14T02:17:01.572Z,3.37
2023-02-14T02:22:30.329Z,3.24
2023-02-14T02:28:01.331Z,3.27
2023-02-14T02:33:14.325Z,3.27
2023-02-14T02:38:39.360Z,3.39
2023-02-14T02:43:52.472Z,3.47
2023-02-14T02:49:55.827Z,3.40
2023-02-14T02:55:04.603Z,3.42
2023-02-14T03:00:14.912Z,3.42
2023-02-14T03:05:18.955Z,3.33
2023-02-14T03:10:27.264Z,3.34
2023-02-14T03:15:47.449Z,3.43
2023-02-14T03:21:15.714Z,3.41
2023-02-14T03:26:27.633Z,3.34
2023-02-14T03:31:47.280Z,3.47
2023-02-14T03:36:58.760Z,3.36
2023-02-14T03:42:06.985Z,3.27
2023-02-14T03:47:22.894Z,3.28
2023-02-14T03:52:27.444Z,3.28
2023-02-14T03:57:45.961Z,3.27
2023-02-14T04:02:56.135Z,3.29
2023-02-14T04:08:00.341Z,3.36
2023-02-14T04:13:11.193Z,3.34
2023-02-14T04:18:34.421Z,3.36
2023-02-14T04:23:37.884Z,3.36
2023-02-14T04:28:41.324Z,3.29
2023-02-14T04:33:46.201Z,3.39
2023-02-14T04:38:49.534Z,3.34
2023-02-14T04:43:52.975Z,3.24
2023-02-14T04:48:56.348Z,3.19
2023-02-14T04:53:59.720Z,3.05
2023-02-14T04:59:03.108Z,3.09
2023-02-14T05:04:06.581Z,3.12
2023-02-14T05:09:30.682Z,3.11
2023-02-14T05:14:34.343Z,3.05
2023-02-14T05:19:37.651Z,3.15
2023-02-14T05:24:41.159Z,3.14
2023-02-14T05:29:44.547Z,3.20
2023-02-14T05:34:48.037Z,3.04
2023-02-14T05:39:51.612Z,3.07
2023-02-14T05:44:55.124Z,3.20
2023-02-14T05:49:58.620Z,3.15
2023-02-14T05:55:02.700Z,3.20
2023-02-14T06:00:10.683Z,3.20
2023-02-14T06:05:18.497Z,3.20
2023-02-14T06:10:24.720Z,3.14
2023-02-14T06:15:31.202Z,3.20
2023-02-14T06:20:34.879Z,3.21
2023-02-14T06:25:41.026Z,3.21
2023-02-14T06:31:05.082Z,3.22
2023-02-14T06:36:39.116Z,3.20
2023-02-14T06:41:42.898Z,3.25
2023-02-14T06:46:46.285Z,3.22
2023-02-14T06:51:50.089Z,3.31
2023-02-14T06:56:53.429Z,3.45
2023-02-14T07:02:00.478Z,3.47
2023-02-14T07:07:06.796Z,3.48
2023-02-14T07:12:22.259Z,3.34
2023-02-14T07:17:25.814Z,3.31
2023-02-14T07:22:30.414Z,3.37
2023-02-14T07:27:34.257Z,3.36
2023-02-14T07:32:51.782Z,3.50
2023-02-14T07:37:55.568Z,3.49
2023-02-14T07:43:02.187Z,3.48
2023-02-14T07:48:06.102Z,3.53
2023-02-14T07:53:09.673Z,3.64
2023-02-14T07:58:13.366Z,3.65
2023-02-14T08:03:19.641Z,3.76
2023-02-14T08:08:43.514Z,3.83
2023-02-14T08:13:52.788Z,3.90
2023-02-14T08:19:08.499Z,3.88
2023-02-14T08:24:25.456Z,4.07
2023-02-14T08:29:38.113Z,4.12
2023-02-14T08:34:41.983Z,4.11
2023-02-14T08:39:45.775Z,4.13
2023-02-14T08:44:54.730Z,4.23
2023-02-14T08:50:00.662Z,4.25
2023-02-14T08:55:14.900Z,4.32
2023-02-14T09:00:18.653Z,4.28
2023-02-14T09:05:27.352Z,4.47
2023-02-14T09:10:56.399Z,4.58
2023-02-14T09:16:04.414Z,4.57
2023-02-14T09:21:13.852Z,4.66
2023-02-14T09:26:18.637Z,4.81
2023-02-14T09:31:23.965Z,4.72
2023-02-14T09:36:27.523Z,4.65
2023-02-14T09:41:31.094Z,4.76
2023-02-14T09:46:59.622Z,4.75
2023-02-14T09:52:04.591Z,4.91
2023-02-14T09:57:36.080Z,5.00
2023-02-14T10:03:22.604Z,4.93
2023-02-14T10:09:09.568Z,4.83
2023-02-14T10:14:21.531Z,4.69
2023-02-14T10:19:32.893Z,4.55
2023-02-14T10:25:01.951Z,4.62
2023-02-14T10:30:29.133Z,4.82
2023-02-14T10:36:22.965Z,4.94
2023-02-14T10:42:02.580Z,5.00
2023-02-14T10:48:04.434Z,4.65
2023-02-14T10:54:01.729Z,4.75
2023-02-14T10:59:48.644Z,4.77
2023-02-14T11:04:52.682Z,5.02
2023-02-14T11:10:13.238Z,5.15
2023-02-14T11:15:25.787Z,5.05
2023-02-14T11:21:00.100Z,5.10
2023-02-14T11:26:25.148Z,5.29
2023-02-14T11:31:34.665Z,5.27
2023-02-14T11:36:43.206Z,5.39
2023-02-14T11:42:11.729Z,5.32
2023-02-14T11:47:41.966Z,5.30
2023-02-14T11:52:52.649Z,5.37
2023-02-14T11:57:59.940Z,5.35
2023-02-14T12:03:06.843Z,5.46
2023-02-14T12:08:13.814Z,5.40
2023-02-14T12:13:18.355Z,5.43
2023-02-14T12:19:09.557Z,5.42
2023-02-14T12:24:38.185Z,5.25
2023-02-14T12:29:53.307Z,5.28
2023-02-14T12:35:24.444Z,5.29
2023-02-14T12:41:16.369Z,5.35
2023-02-14T12:46:43.553Z,5.45
2023-02-14T12:52:42.407Z,5.41
2023-02-14T12:57:53.658Z,5.42
2023-02-14T13:03:33.221Z,5.34
2023-02-14T13:09:11.424Z,5.56
2023-02-14T13:15:03.097Z,5.61
2023-02-14T13:20:34.669Z,5.64
2023-02-14T13:25:42.959Z,5.64
2023-02-14T13:30:49.243Z,5.49
2023-02-14T13:35:57.322Z,5.48
2023-02-14T13:41:03.058Z,5.55
2023-02-14T13:46:07.024Z,5.51
2023-02-14T13:51:16.797Z,5.36
2023-02-14T13:56:29.477Z,5.50
2023-02-14T14:01:36.031Z,5.42
2023-02-14T14:07:25.849Z,5.39
2023-02-14T14:12:29.544Z,5.51
2023-02-14T14:18:09.130Z,5.59
2023-02-14T14:23:38.632Z,5.48
2023-02-14T14:28:47.575Z,5.49
2023-02-14T14:34:01.358Z,5.34
2023-02-14T14:39:27.932Z,5.41
2023-02-14T14:44:35.983Z,5.30
2023-02-14T14:49:40.734Z,5.23
2023-02-14T14:54:44.215Z,5.27
2023-02-14T15:00:09.560Z,5.33
2023-02-14T15:05:35.225Z,5.34
2023-02-14T15:10:38.796Z,5.43
2023-02-14T15:15:47.376Z,5.24
2023-02-14T15:20:54.131Z,5.26
2023-02-14T15:26:28.602Z,5.32
2023-02-14T15:31:35.366Z,5.29
2023-02-14T15:36:46.719Z,5.20
2023-02-14T15:41:54.039Z,5.18
2023-02-14T15:47:07.117Z,5.26
2023-02-14T15:52:16.559Z,5.29
2023-02-14T15:57:25.171Z,5.21
2023-02-14T16:02:54.509Z,5.09
2023-02-14T16:09:12.618Z,5.05
2023-02-14T16:14:35.348Z,5.07
2023-02-14T16:19:43.524Z,5.14
2023-02-14T16:24:46.905Z,5.09
2023-02-14T16:29:50.434Z,5.09
2023-02-14T16:34:55.012Z,5.15
2023-02-14T16:40:00.584Z,5.12
2023-02-14T16:45:07.407Z,5.16
2023-02-14T16:50:20.554Z,5.17
2023-02-14T16:55:30.175Z,5.09
2023-02-14T17:00:33.762Z,5.18
2023-02-14T17:05:38.605Z,5.12
2023-02-14T17:10:45.588Z,4.99
2023-02-14T17:16:30.864Z,5.07
2023-02-14T17:21:58.117Z,5.13
2023-02-14T17:27:01.652Z,5.06
2023-02-14T17:32:05.635Z,5.02
2023-02-14T17:37:11.955Z,5.03
2023-02-14T17:42:15.604Z,5.05
2023-02-14T17:48:02.820Z,5.12
2023-02-14T17:53:09.596Z,5.24
2023-02-14T17:58:16.078Z,5.06
2023-02-14T18:03:29.677Z,5.00
2023-02-14T18:08:39.135Z,5.00
2023-02-14T18:13:55.623Z,4.93
2023-02-14T18:19:06.297Z,4.95
2023-02-14T18:24:14.213Z,4.94
2023-02-14T18:29:29.788Z,5.07
2023-02-14T18:34:37.089Z,5.08
2023-02-14T18:39:40.782Z,5.01
2023-02-14T18:45:17.582Z,4.86
2023-02-14T18:50:27.256Z,4.87
2023-02-14T18:55:34.400Z,4.76
2023-02-14T19:00:38.260Z,4.56
2023-02-14T19:05:44.239Z,4.59
2023-02-14T19:10:50.746Z,4.80
2023-02-14T19:15:58.943Z,4.90
2023-02-14T19:21:16.610Z,4.93
2023-02-14T19:26:22.059Z,4.90
2023-02-14T19:31:26.953Z,4.96
2023-02-14T19:36:31.407Z,4.97
2023-02-14T19:41:35.108Z,4.86
2023-02-14T19:46:38.851Z,4.91
2023-02-14T19:51:43.106Z,4.83
2023-02-14T19:56:49.767Z,4.74
2023-02-14T20:02:21.278Z,4.76
2023-02-14T20:07:40.679Z,4.65
2023-02-14T20:12:47.357Z,4.75
2023-02-14T20:17:50.919Z,4.68
2023-02-14T20:22:54.563Z,4.55
2023-02-14T20:28:00.394Z,4.56
2023-02-14T20:33:04.705Z,4.59
2023-02-14T20:38:18.815Z,4.25
2023-02-14T20:43:25.510Z,4.35
2023-02-14T20:48:29.545Z,4.62
2023-02-14T20:53:36.094Z,4.62
2023-02-14T20:58:40.970Z,4.56
2023-02-14T21:04:08.094Z,4.72
2023-02-14T21:09:13.928Z,4.58
2023-02-14T21:14:21.120Z,4.49
2023-02-14T21:19:26.708Z,4.56
2023-02-14T21:24:34.343Z,4.54
2023-02-14T21:29:58.312Z,4.47
2023-02-14T21:35:05.493Z,4.27
2023-02-14T21:40:09.033Z,4.36
2023-02-14T21:45:33.941Z,4.62
2023-02-14T21:50:47.879Z,4.57
2023-02-14T21:55:51.286Z,4.45
2023-02-14T22:00:54.837Z,4.58
2023-02-14T22:06:18.441Z,4.49
2023-02-14T22:11:22.850Z,4.51
2023-02-14T22:16:26.526Z,4.51
2023-02-14T22:21:34.832Z,4.45
2023-02-14T22:26:39.675Z,4.48
2023-02-14T22:31:57.429Z,4.43
2023-02-14T22:37:07.515Z,4.43
2023-02-14T22:42:14.276Z,4.52
2023-02-14T22:47:28.385Z,4.39
2023-02-14T22:52:35.338Z,4.26
2023-02-14T22:57:39.252Z,4.36
2023-02-14T23:02:52.769Z,4.18
2023-02-14T23:07:56.383Z,4.29
2023-02-14T23:13:19.906Z,4.31
2023-02-14T23:19:05.333Z,4.21
2023-02-14T23:24:11.904Z,4.26
2023-02-14T23:29:36.261Z,4.36
2023-02-14T23:34:50.333Z,4.34
2023-02-14T23:39:57.210Z,4.27
2023-02-14T23:45:20.831Z,4.22
2023-02-14T23:50:46.267Z,4.27
2023-02-14T23:55:52.734Z,4.26
